Castaic, California
Current Conditions -  °F | °C
As of 5:51 AM on Monday 20 Oct 2014 (Local Time) from KVNY Reporting Station
Haze Haze  
Wind Chill: 63°   Ceiling: 500
Heat Index: 63°   Visibility: 4mi
Dew Point: 59°   Wind: 0mph
Humidity: 87%   Direction: NA
Pressure: 29.91"   Gusts: NA
Location:  34.48°N, 118.59°W
Report Text: KVNY 201251Z 00000KT 4SM BR OVC005 17/15 A2991 RMK AO2 SLP120 T01720150
Loading
Personal Weather Stations






























Interactive Weather Map
Tropical Storm Tracking
New forecast layout! Learn more

10-Day Weather Forecast

Advertisements
Track Severe Weather on mobile